YWLM/NTL METAR and TAF weather

Enter ICAO airport designator
Station Type Date Time Source
YWLM METAR 2019/04/24 22:00 UTC NOAA

YWLM 242200Z AUTO 32008KT 9999 // NCD 17/15 Q1021


Station Type Date Time Source
YWLM Decoded METAR 2019/04/24 22:00 UTC NOAA

Station name not available
Apr 24, 2019 - 06:00 PM EDT / 2019.04.24 2200 UTC
Wind: from the NW (320 degrees) at 9 MPH (8 KT):0
Visibility: greater than 7 mile(s):0
Temperature: 62 F (17 C)
Dew Point: 59 F (15 C)
Relative Humidity: 88%
Pressure (altimeter): 30.15 in. Hg (1021 hPa)
ob: YWLM 242200Z AUTO 32008KT 9999 // NCD 17/15 Q1021
cycle: 22

Station Type Date Time Source
YWLM TAF 2019/04/24 19:36 UTC NOAA

TAF
AMD YWLM 241933Z 2419/2518 02005KT CAVOK
FM250100 11010KT CAVOK
FM251400 33005KT CAVOK PROB40 2419/2423 0500 FG BKN001 PROB30 2516/2518 2000 BR SCT001

Example: see airport list